sensor_id;sensor_type;location;lat;lon;timestamp;P1;durP1;ratioP1;P2;durP2;ratioP2
38693;SDS011;24447;43.460;25.744;2023-05-10T00:01:38;15.10;;;6.65;;
38693;SDS011;24447;43.460;25.744;2023-05-10T00:04:04;12.25;;;5.40;;
38693;SDS011;24447;43.460;25.744;2023-05-10T00:06:30;12.00;;;5.07;;
38693;SDS011;24447;43.460;25.744;2023-05-10T00:08:56;12.38;;;5.68;;
38693;SDS011;24447;43.460;25.744;2023-05-10T00:11:22;13.23;;;5.80;;
38693;SDS011;24447;43.460;25.744;2023-05-10T00:13:48;13.55;;;5.50;;
38693;SDS011;24447;43.460;25.744;2023-05-10T00:16:14;13.43;;;5.78;;
38693;SDS011;24447;43.460;25.744;2023-05-10T00:18:40;18.30;;;6.28;;
38693;SDS011;24447;43.460;25.744;2023-05-10T00:21:06;15.20;;;6.40;;
38693;SDS011;24447;43.460;25.744;2023-05-10T00:23:32;13.10;;;5.93;;
38693;SDS011;24447;43.460;25.744;2023-05-10T00:25:58;15.70;;;6.38;;
38693;SDS011;24447;43.460;25.744;2023-05-10T00:28:24;15.38;;;5.72;;
38693;SDS011;24447;43.460;25.744;2023-05-10T00:30:49;15.68;;;5.90;;
38693;SDS011;24447;43.460;25.744;2023-05-10T00:33:15;14.70;;;6.10;;
38693;SDS011;24447;43.460;25.744;2023-05-10T00:35:41;14.98;;;6.18;;
38693;SDS011;24447;43.460;25.744;2023-05-10T00:38:07;16.23;;;6.32;;
38693;SDS011;24447;43.460;25.744;2023-05-10T00:40:35;16.38;;;6.28;;
38693;SDS011;24447;43.460;25.744;2023-05-10T00:43:02;14.23;;;6.28;;
38693;SDS011;24447;43.460;25.744;2023-05-10T00:45:28;14.40;;;6.00;;
38693;SDS011;24447;43.460;25.744;2023-05-10T00:47:56;13.32;;;5.18;;
38693;SDS011;24447;43.460;25.744;2023-05-10T00:50:22;14.10;;;6.35;;
38693;SDS011;24447;43.460;25.744;2023-05-10T00:52:49;11.88;;;5.47;;
38693;SDS011;24447;43.460;25.744;2023-05-10T00:55:15;16.55;;;6.53;;
38693;SDS011;24447;43.460;25.744;2023-05-10T00:57:41;17.98;;;7.03;;
38693;SDS011;24447;43.460;25.744;2023-05-10T01:00:07;13.48;;;5.32;;
38693;SDS011;24447;43.460;25.744;2023-05-10T01:02:34;17.38;;;6.78;;
38693;SDS011;24447;43.460;25.744;2023-05-10T01:05:01;14.02;;;6.70;;
38693;SDS011;24447;43.460;25.744;2023-05-10T01:07:31;20.38;;;8.48;;
38693;SDS011;24447;43.460;25.744;2023-05-10T01:09:57;13.13;;;5.72;;
38693;SDS011;24447;43.460;25.744;2023-05-10T01:12:23;13.98;;;5.47;;
38693;SDS011;24447;43.460;25.744;2023-05-10T01:14:49;19.40;;;6.35;;
38693;SDS011;24447;43.460;25.744;2023-05-10T01:17:15;14.52;;;6.03;;
38693;SDS011;24447;43.460;25.744;2023-05-10T01:19:41;15.27;;;6.80;;
38693;SDS011;24447;43.460;25.744;2023-05-10T01:22:52;13.93;;;5.53;;
38693;SDS011;24447;43.460;25.744;2023-05-10T01:25:11;16.15;;;6.78;;
38693;SDS011;24447;43.460;25.744;2023-05-10T01:34:09;15.20;;;6.28;;
38693;SDS011;24447;43.460;25.744;2023-05-10T01:36:45;14.02;;;6.35;;
38693;SDS011;24447;43.460;25.744;2023-05-10T01:42:21;14.38;;;6.22;;
38693;SDS011;24447;43.460;25.744;2023-05-10T01:44:51;13.77;;;6.60;;
38693;SDS011;24447;43.460;25.744;2023-05-10T01:47:28;14.80;;;6.15;;
38693;SDS011;24447;43.460;25.744;2023-05-10T01:49:59;15.63;;;6.50;;
38693;SDS011;24447;43.460;25.744;2023-05-10T01:52:32;14.45;;;6.20;;
38693;SDS011;24447;43.460;25.744;2023-05-10T01:55:00;14.55;;;6.38;;
38693;SDS011;24447;43.460;25.744;2023-05-10T01:57:36;17.70;;;7.20;;
38693;SDS011;24447;43.460;25.744;2023-05-10T02:00:04;11.75;;;5.88;;
38693;SDS011;24447;43.460;25.744;2023-05-10T02:02:35;18.40;;;8.15;;
38693;SDS011;24447;43.460;25.744;2023-05-10T02:05:03;14.75;;;6.20;;
38693;SDS011;24447;43.460;25.744;2023-05-10T02:07:31;23.73;;;8.05;;
38693;SDS011;24447;43.460;25.744;2023-05-10T02:10:00;14.55;;;6.18;;
38693;SDS011;24447;43.460;25.744;2023-05-10T02:12:26;18.00;;;7.63;;
38693;SDS011;24447;43.460;25.744;2023-05-10T02:14:54;17.23;;;6.43;;
38693;SDS011;24447;43.460;25.744;2023-05-10T02:17:20;14.70;;;6.50;;
38693;SDS011;24447;43.460;25.744;2023-05-10T02:19:46;18.00;;;7.22;;
38693;SDS011;24447;43.460;25.744;2023-05-10T02:22:12;15.75;;;6.38;;
38693;SDS011;24447;43.460;25.744;2023-05-10T02:24:39;17.05;;;6.82;;
38693;SDS011;24447;43.460;25.744;2023-05-10T02:27:05;17.05;;;6.63;;
38693;SDS011;24447;43.460;25.744;2023-05-10T02:29:31;18.27;;;7.43;;
38693;SDS011;24447;43.460;25.744;2023-05-10T02:31:58;19.23;;;7.90;;
38693;SDS011;24447;43.460;25.744;2023-05-10T02:34:27;15.95;;;6.78;;
38693;SDS011;24447;43.460;25.744;2023-05-10T02:36:54;15.15;;;6.75;;
38693;SDS011;24447;43.460;25.744;2023-05-10T02:39:21;18.00;;;6.97;;
38693;SDS011;24447;43.460;25.744;2023-05-10T02:41:48;25.05;;;7.60;;
38693;SDS011;24447;43.460;25.744;2023-05-10T02:44:15;17.70;;;6.25;;
38693;SDS011;24447;43.460;25.744;2023-05-10T02:46:43;13.43;;;6.20;;
38693;SDS011;24447;43.460;25.744;2023-05-10T02:49:09;16.48;;;6.28;;
38693;SDS011;24447;43.460;25.744;2023-05-10T02:51:36;17.70;;;7.28;;
38693;SDS011;24447;43.460;25.744;2023-05-10T02:54:11;16.38;;;6.82;;
38693;SDS011;24447;43.460;25.744;2023-05-10T02:56:48;16.10;;;6.32;;
38693;SDS011;24447;43.460;25.744;2023-05-10T02:59:16;14.35;;;6.20;;
38693;SDS011;24447;43.460;25.744;2023-05-10T03:01:42;15.18;;;6.60;;
38693;SDS011;24447;43.460;25.744;2023-05-10T03:04:08;16.20;;;6.45;;
38693;SDS011;24447;43.460;25.744;2023-05-10T03:06:34;18.35;;;7.18;;
38693;SDS011;24447;43.460;25.744;2023-05-10T03:08:59;24.52;;;7.32;;
38693;SDS011;24447;43.460;25.744;2023-05-10T03:23:11;16.83;;;7.45;;
38693;SDS011;24447;43.460;25.744;2023-05-10T03:25:11;16.65;;;7.07;;
38693;SDS011;24447;43.460;25.744;2023-05-10T03:27:39;14.40;;;5.60;;
38693;SDS011;24447;43.460;25.744;2023-05-10T03:30:07;14.73;;;6.30;;
38693;SDS011;24447;43.460;25.744;2023-05-10T03:32:34;13.02;;;5.50;;
38693;SDS011;24447;43.460;25.744;2023-05-10T03:35:00;15.57;;;6.25;;
38693;SDS011;24447;43.460;25.744;2023-05-10T03:37:26;16.58;;;6.45;;
38693;SDS011;24447;43.460;25.744;2023-05-10T03:39:52;17.75;;;6.78;;
38693;SDS011;24447;43.460;25.744;2023-05-10T03:42:18;16.20;;;6.65;;
38693;SDS011;24447;43.460;25.744;2023-05-10T03:44:44;14.40;;;6.20;;
38693;SDS011;24447;43.460;25.744;2023-05-10T03:47:10;15.68;;;6.05;;
38693;SDS011;24447;43.460;25.744;2023-05-10T03:49:36;15.50;;;5.82;;
38693;SDS011;24447;43.460;25.744;2023-05-10T03:52:02;18.20;;;6.97;;
38693;SDS011;24447;43.460;25.744;2023-05-10T03:54:28;14.95;;;6.90;;
38693;SDS011;24447;43.460;25.744;2023-05-10T03:56:54;14.90;;;5.75;;
38693;SDS011;24447;43.460;25.744;2023-05-10T03:59:19;14.20;;;4.80;;
38693;SDS011;24447;43.460;25.744;2023-05-10T04:01:46;9.88;;;4.70;;
38693;SDS011;24447;43.460;25.744;2023-05-10T04:04:12;4.45;;;3.05;;
38693;SDS011;24447;43.460;25.744;2023-05-10T04:06:37;9.48;;;4.28;;
38693;SDS011;24447;43.460;25.744;2023-05-10T04:09:03;8.55;;;3.92;;
38693;SDS011;24447;43.460;25.744;2023-05-10T04:11:29;7.13;;;3.65;;
38693;SDS011;24447;43.460;25.744;2023-05-10T04:13:55;8.27;;;3.60;;
38693;SDS011;24447;43.460;25.744;2023-05-10T04:16:21;6.75;;;3.60;;
38693;SDS011;24447;43.460;25.744;2023-05-10T04:18:47;11.10;;;3.75;;
38693;SDS011;24447;43.460;25.744;2023-05-10T04:21:14;8.40;;;3.30;;
38693;SDS011;24447;43.460;25.744;2023-05-10T04:23:40;7.70;;;3.40;;
38693;SDS011;24447;43.460;25.744;2023-05-10T04:26:06;5.53;;;3.45;;
38693;SDS011;24447;43.460;25.744;2023-05-10T04:28:32;4.90;;;2.85;;
38693;SDS011;24447;43.460;25.744;2023-05-10T04:31:02;8.02;;;3.70;;
38693;SDS011;24447;43.460;25.744;2023-05-10T04:33:28;5.93;;;2.85;;
38693;SDS011;24447;43.460;25.744;2023-05-10T04:35:55;8.75;;;3.67;;
38693;SDS011;24447;43.460;25.744;2023-05-10T04:38:20;8.95;;;3.60;;
38693;SDS011;24447;43.460;25.744;2023-05-10T04:40:46;11.05;;;4.03;;
38693;SDS011;24447;43.460;25.744;2023-05-10T04:43:12;11.05;;;3.85;;
38693;SDS011;24447;43.460;25.744;2023-05-10T04:45:38;4.93;;;2.90;;
38693;SDS011;24447;43.460;25.744;2023-05-10T04:48:04;8.07;;;3.33;;
38693;SDS011;24447;43.460;25.744;2023-05-10T04:50:30;4.10;;;2.85;;
38693;SDS011;24447;43.460;25.744;2023-05-10T04:52:56;8.88;;;3.38;;
38693;SDS011;24447;43.460;25.744;2023-05-10T04:55:22;10.95;;;2.95;;
38693;SDS011;24447;43.460;25.744;2023-05-10T04:57:48;9.48;;;3.25;;
38693;SDS011;24447;43.460;25.744;2023-05-10T05:00:14;8.45;;;4.13;;
38693;SDS011;24447;43.460;25.744;2023-05-10T05:02:44;7.00;;;3.33;;
38693;SDS011;24447;43.460;25.744;2023-05-10T05:05:11;9.80;;;3.50;;
38693;SDS011;24447;43.460;25.744;2023-05-10T05:07:37;10.50;;;4.05;;
38693;SDS011;24447;43.460;25.744;2023-05-10T05:10:04;8.88;;;3.45;;
38693;SDS011;24447;43.460;25.744;2023-05-10T05:12:34;9.10;;;3.17;;
38693;SDS011;24447;43.460;25.744;2023-05-10T05:15:00;4.95;;;2.70;;
38693;SDS011;24447;43.460;25.744;2023-05-10T05:17:26;6.80;;;3.22;;
38693;SDS011;24447;43.460;25.744;2023-05-10T05:19:52;3.63;;;2.40;;
38693;SDS011;24447;43.460;25.744;2023-05-10T05:22:18;6.88;;;3.22;;
38693;SDS011;24447;43.460;25.744;2023-05-10T05:24:51;5.68;;;3.22;;
38693;SDS011;24447;43.460;25.744;2023-05-10T05:27:17;7.60;;;3.20;;
38693;SDS011;24447;43.460;25.744;2023-05-10T05:29:43;9.23;;;3.15;;
38693;SDS011;24447;43.460;25.744;2023-05-10T05:32:09;9.80;;;2.58;;
38693;SDS011;24447;43.460;25.744;2023-05-10T05:34:36;8.45;;;2.95;;
38693;SDS011;24447;43.460;25.744;2023-05-10T05:37:02;11.10;;;3.22;;
38693;SDS011;24447;43.460;25.744;2023-05-10T05:39:27;8.00;;;3.47;;
38693;SDS011;24447;43.460;25.744;2023-05-10T05:41:53;5.43;;;2.85;;
38693;SDS011;24447;43.460;25.744;2023-05-10T05:44:20;5.15;;;2.70;;
38693;SDS011;24447;43.460;25.744;2023-05-10T05:46:45;6.25;;;3.20;;
38693;SDS011;24447;43.460;25.744;2023-05-10T05:49:11;5.40;;;2.50;;
38693;SDS011;24447;43.460;25.744;2023-05-10T05:51:37;7.70;;;3.30;;
38693;SDS011;24447;43.460;25.744;2023-05-10T05:54:03;3.92;;;2.63;;
38693;SDS011;24447;43.460;25.744;2023-05-10T05:56:29;7.18;;;2.75;;
38693;SDS011;24447;43.460;25.744;2023-05-10T05:58:55;8.65;;;3.72;;
38693;SDS011;24447;43.460;25.744;2023-05-10T06:01:21;5.85;;;2.80;;
38693;SDS011;24447;43.460;25.744;2023-05-10T06:03:47;6.32;;;2.58;;
38693;SDS011;24447;43.460;25.744;2023-05-10T06:06:13;5.78;;;2.88;;
38693;SDS011;24447;43.460;25.744;2023-05-10T06:08:39;5.57;;;2.15;;
38693;SDS011;24447;43.460;25.744;2023-05-10T06:11:05;7.78;;;3.17;;
38693;SDS011;24447;43.460;25.744;2023-05-10T06:13:30;6.00;;;2.67;;
38693;SDS011;24447;43.460;25.744;2023-05-10T06:15:58;7.70;;;3.33;;
38693;SDS011;24447;43.460;25.744;2023-05-10T06:18:24;8.55;;;2.88;;
38693;SDS011;24447;43.460;25.744;2023-05-10T06:20:50;7.78;;;3.22;;
38693;SDS011;24447;43.460;25.744;2023-05-10T06:23:16;5.32;;;2.80;;
38693;SDS011;24447;43.460;25.744;2023-05-10T06:25:42;5.53;;;2.95;;
38693;SDS011;24447;43.460;25.744;2023-05-10T06:28:08;6.40;;;2.88;;
38693;SDS011;24447;43.460;25.744;2023-05-10T06:30:35;7.93;;;3.33;;
38693;SDS011;24447;43.460;25.744;2023-05-10T06:33:01;8.85;;;2.47;;
38693;SDS011;24447;43.460;25.744;2023-05-10T06:35:28;7.72;;;3.47;;
38693;SDS011;24447;43.460;25.744;2023-05-10T06:37:54;10.77;;;3.33;;
38693;SDS011;24447;43.460;25.744;2023-05-10T06:40:20;6.93;;;2.00;;
38693;SDS011;24447;43.460;25.744;2023-05-10T06:42:46;5.15;;;2.47;;
38693;SDS011;24447;43.460;25.744;2023-05-10T06:45:16;7.05;;;2.58;;
38693;SDS011;24447;43.460;25.744;2023-05-10T06:47:42;5.75;;;2.40;;
38693;SDS011;24447;43.460;25.744;2023-05-10T06:50:08;5.38;;;2.30;;
38693;SDS011;24447;43.460;25.744;2023-05-10T06:52:35;3.42;;;2.10;;
38693;SDS011;24447;43.460;25.744;2023-05-10T06:55:01;3.60;;;2.15;;
38693;SDS011;24447;43.460;25.744;2023-05-10T06:57:28;7.43;;;2.67;;
38693;SDS011;24447;43.460;25.744;2023-05-10T06:59:54;4.97;;;2.17;;
38693;SDS011;24447;43.460;25.744;2023-05-10T07:02:21;5.30;;;2.03;;
38693;SDS011;24447;43.460;25.744;2023-05-10T07:04:47;7.00;;;2.55;;
38693;SDS011;24447;43.460;25.744;2023-05-10T07:07:14;4.28;;;2.38;;
38693;SDS011;24447;43.460;25.744;2023-05-10T07:09:40;6.13;;;1.88;;
38693;SDS011;24447;43.460;25.744;2023-05-10T07:12:06;7.10;;;2.05;;
38693;SDS011;24447;43.460;25.744;2023-05-10T07:14:32;2.10;;;1.77;;
38693;SDS011;24447;43.460;25.744;2023-05-10T07:16:58;5.68;;;1.85;;
38693;SDS011;24447;43.460;25.744;2023-05-10T07:19:24;4.95;;;2.13;;
38693;SDS011;24447;43.460;25.744;2023-05-10T07:21:49;1.85;;;1.65;;
38693;SDS011;24447;43.460;25.744;2023-05-10T07:24:15;3.22;;;1.95;;
38693;SDS011;24447;43.460;25.744;2023-05-10T07:26:42;4.70;;;2.25;;
38693;SDS011;24447;43.460;25.744;2023-05-10T07:29:07;5.38;;;2.20;;
38693;SDS011;24447;43.460;25.744;2023-05-10T07:31:33;4.80;;;2.40;;
38693;SDS011;24447;43.460;25.744;2023-05-10T07:33:59;6.07;;;1.90;;
38693;SDS011;24447;43.460;25.744;2023-05-10T07:36:25;3.72;;;1.77;;
38693;SDS011;24447;43.460;25.744;2023-05-10T07:38:51;3.92;;;1.83;;
38693;SDS011;24447;43.460;25.744;2023-05-10T07:41:17;4.90;;;2.28;;
38693;SDS011;24447;43.460;25.744;2023-05-10T07:43:43;3.80;;;2.10;;
38693;SDS011;24447;43.460;25.744;2023-05-10T07:46:09;6.55;;;2.17;;
38693;SDS011;24447;43.460;25.744;2023-05-10T07:48:36;5.28;;;2.50;;
38693;SDS011;24447;43.460;25.744;2023-05-10T07:51:02;3.03;;;1.98;;
38693;SDS011;24447;43.460;25.744;2023-05-10T07:53:28;3.10;;;2.20;;
38693;SDS011;24447;43.460;25.744;2023-05-10T07:55:55;5.10;;;2.40;;
38693;SDS011;24447;43.460;25.744;2023-05-10T07:58:23;6.57;;;2.50;;
38693;SDS011;24447;43.460;25.744;2023-05-10T08:00:50;3.33;;;2.03;;
38693;SDS011;24447;43.460;25.744;2023-05-10T08:03:16;3.08;;;2.33;;
38693;SDS011;24447;43.460;25.744;2023-05-10T08:05:41;6.80;;;2.45;;
38693;SDS011;24447;43.460;25.744;2023-05-10T08:08:07;4.43;;;2.42;;
38693;SDS011;24447;43.460;25.744;2023-05-10T08:10:33;5.75;;;2.22;;
38693;SDS011;24447;43.460;25.744;2023-05-10T08:12:59;4.63;;;2.15;;
38693;SDS011;24447;43.460;25.744;2023-05-10T08:15:25;7.07;;;2.17;;
38693;SDS011;24447;43.460;25.744;2023-05-10T08:17:51;2.72;;;2.00;;
38693;SDS011;24447;43.460;25.744;2023-05-10T08:20:17;2.78;;;2.00;;
38693;SDS011;24447;43.460;25.744;2023-05-10T08:22:47;2.35;;;1.80;;
38693;SDS011;24447;43.460;25.744;2023-05-10T08:25:12;5.43;;;1.98;;
38693;SDS011;24447;43.460;25.744;2023-05-10T08:27:38;3.03;;;2.13;;
38693;SDS011;24447;43.460;25.744;2023-05-10T08:30:05;3.90;;;1.95;;
38693;SDS011;24447;43.460;25.744;2023-05-10T08:32:31;3.00;;;1.95;;
38693;SDS011;24447;43.460;25.744;2023-05-10T08:34:57;5.40;;;2.03;;
38693;SDS011;24447;43.460;25.744;2023-05-10T08:37:23;3.15;;;1.98;;
38693;SDS011;24447;43.460;25.744;2023-05-10T08:39:50;6.15;;;2.80;;
38693;SDS011;24447;43.460;25.744;2023-05-10T08:42:16;2.78;;;2.15;;
38693;SDS011;24447;43.460;25.744;2023-05-10T08:44:45;3.10;;;2.20;;
38693;SDS011;24447;43.460;25.744;2023-05-10T08:47:12;2.50;;;1.88;;
38693;SDS011;24447;43.460;25.744;2023-05-10T08:49:38;3.90;;;2.60;;
38693;SDS011;24447;43.460;25.744;2023-05-10T08:52:05;2.95;;;2.00;;
38693;SDS011;24447;43.460;25.744;2023-05-10T08:54:32;2.25;;;1.83;;
38693;SDS011;24447;43.460;25.744;2023-05-10T08:56:59;5.70;;;2.65;;
38693;SDS011;24447;43.460;25.744;2023-05-10T08:59:25;2.13;;;1.85;;
38693;SDS011;24447;43.460;25.744;2023-05-10T09:01:51;3.63;;;2.40;;
38693;SDS011;24447;43.460;25.744;2023-05-10T09:04:19;6.10;;;3.00;;
38693;SDS011;24447;43.460;25.744;2023-05-10T09:06:45;7.50;;;3.45;;
38693;SDS011;24447;43.460;25.744;2023-05-10T09:09:11;4.53;;;1.67;;
38693;SDS011;24447;43.460;25.744;2023-05-10T09:11:37;4.63;;;2.30;;
38693;SDS011;24447;43.460;25.744;2023-05-10T09:14:03;6.32;;;2.80;;
38693;SDS011;24447;43.460;25.744;2023-05-10T09:16:29;4.43;;;1.88;;
38693;SDS011;24447;43.460;25.744;2023-05-10T09:18:55;3.92;;;2.53;;
38693;SDS011;24447;43.460;25.744;2023-05-10T09:21:21;5.13;;;2.03;;
38693;SDS011;24447;43.460;25.744;2023-05-10T09:23:47;3.80;;;2.20;;
38693;SDS011;24447;43.460;25.744;2023-05-10T09:26:15;4.50;;;2.45;;
38693;SDS011;24447;43.460;25.744;2023-05-10T09:28:51;5.85;;;2.90;;
38693;SDS011;24447;43.460;25.744;2023-05-10T09:31:18;5.28;;;2.78;;
38693;SDS011;24447;43.460;25.744;2023-05-10T09:33:45;8.10;;;3.20;;
38693;SDS011;24447;43.460;25.744;2023-05-10T09:36:12;4.20;;;2.80;;
38693;SDS011;24447;43.460;25.744;2023-05-10T09:38:48;5.43;;;2.72;;
38693;SDS011;24447;43.460;25.744;2023-05-10T09:41:23;3.40;;;1.98;;
38693;SDS011;24447;43.460;25.744;2023-05-10T09:43:50;3.25;;;2.05;;
38693;SDS011;24447;43.460;25.744;2023-05-10T09:46:16;2.88;;;2.20;;
38693;SDS011;24447;43.460;25.744;2023-05-10T09:48:43;9.32;;;2.70;;
38693;SDS011;24447;43.460;25.744;2023-05-10T09:51:16;2.42;;;2.20;;
38693;SDS011;24447;43.460;25.744;2023-05-10T09:53:45;3.20;;;2.05;;
38693;SDS011;24447;43.460;25.744;2023-05-10T09:56:11;7.25;;;2.20;;
38693;SDS011;24447;43.460;25.744;2023-05-10T09:58:37;3.38;;;2.20;;
38693;SDS011;24447;43.460;25.744;2023-05-10T10:01:03;2.33;;;2.10;;
38693;SDS011;24447;43.460;25.744;2023-05-10T10:03:29;2.72;;;2.33;;
38693;SDS011;24447;43.460;25.744;2023-05-10T10:05:56;5.03;;;2.85;;
38693;SDS011;24447;43.460;25.744;2023-05-10T10:08:22;2.65;;;1.90;;
38693;SDS011;24447;43.460;25.744;2023-05-10T10:10:48;2.90;;;1.77;;
38693;SDS011;24447;43.460;25.744;2023-05-10T10:13:14;3.13;;;2.30;;
38693;SDS011;24447;43.460;25.744;2023-05-10T10:15:40;5.30;;;2.55;;
38693;SDS011;24447;43.460;25.744;2023-05-10T10:18:08;2.78;;;1.88;;
38693;SDS011;24447;43.460;25.744;2023-05-10T10:20:39;8.63;;;2.70;;
38693;SDS011;24447;43.460;25.744;2023-05-10T10:23:05;6.25;;;2.42;;
38693;SDS011;24447;43.460;25.744;2023-05-10T10:25:31;3.67;;;2.50;;
38693;SDS011;24447;43.460;25.744;2023-05-10T10:36:07;2.90;;;2.15;;
38693;SDS011;24447;43.460;25.744;2023-05-10T10:49:50;3.00;;;2.13;;
38693;SDS011;24447;43.460;25.744;2023-05-10T10:52:27;2.00;;;1.67;;
38693;SDS011;24447;43.460;25.744;2023-05-10T10:57:24;5.55;;;3.13;;
38693;SDS011;24447;43.460;25.744;2023-05-10T10:59:51;3.83;;;1.85;;
38693;SDS011;24447;43.460;25.744;2023-05-10T11:07:55;3.53;;;2.00;;
38693;SDS011;24447;43.460;25.744;2023-05-10T11:10:22;2.05;;;1.73;;
38693;SDS011;24447;43.460;25.744;2023-05-10T11:12:51;5.35;;;2.10;;
38693;SDS011;24447;43.460;25.744;2023-05-10T11:15:33;8.13;;;2.17;;
38693;SDS011;24447;43.460;25.744;2023-05-10T11:17:59;3.05;;;1.45;;
38693;SDS011;24447;43.460;25.744;2023-05-10T11:20:28;3.00;;;1.80;;
38693;SDS011;24447;43.460;25.744;2023-05-10T11:23:10;2.38;;;1.67;;
38693;SDS011;24447;43.460;25.744;2023-05-10T11:25:56;5.63;;;2.35;;
38693;SDS011;24447;43.460;25.744;2023-05-10T11:28:22;1.67;;;1.52;;
38693;SDS011;24447;43.460;25.744;2023-05-10T11:30:48;2.90;;;1.92;;
38693;SDS011;24447;43.460;25.744;2023-05-10T11:33:15;1.42;;;1.23;;
38693;SDS011;24447;43.460;25.744;2023-05-10T11:35:42;5.65;;;1.85;;
38693;SDS011;24447;43.460;25.744;2023-05-10T11:38:09;1.90;;;1.30;;
38693;SDS011;24447;43.460;25.744;2023-05-10T11:40:36;5.88;;;1.98;;
38693;SDS011;24447;43.460;25.744;2023-05-10T11:43:03;3.08;;;1.80;;
38693;SDS011;24447;43.460;25.744;2023-05-10T11:45:31;2.40;;;2.00;;
38693;SDS011;24447;43.460;25.744;2023-05-10T11:47:58;5.13;;;2.28;;
38693;SDS011;24447;43.460;25.744;2023-05-10T11:50:24;6.05;;;2.30;;
38693;SDS011;24447;43.460;25.744;2023-05-10T11:52:56;4.65;;;2.35;;
38693;SDS011;24447;43.460;25.744;2023-05-10T11:55:23;4.03;;;1.80;;
38693;SDS011;24447;43.460;25.744;2023-05-10T11:57:53;2.90;;;1.70;;
38693;SDS011;24447;43.460;25.744;2023-05-10T12:00:20;7.53;;;2.10;;
38693;SDS011;24447;43.460;25.744;2023-05-10T12:02:46;10.05;;;2.10;;
38693;SDS011;24447;43.460;25.744;2023-05-10T12:05:12;2.88;;;1.67;;
38693;SDS011;24447;43.460;25.744;2023-05-10T12:07:39;1.70;;;1.60;;
38693;SDS011;24447;43.460;25.744;2023-05-10T12:12:43;7.63;;;1.80;;
38693;SDS011;24447;43.460;25.744;2023-05-10T12:15:10;2.63;;;1.77;;
38693;SDS011;24447;43.460;25.744;2023-05-10T12:17:45;2.10;;;1.65;;
38693;SDS011;24447;43.460;25.744;2023-05-10T12:22:51;4.32;;;1.98;;
38693;SDS011;24447;43.460;25.744;2023-05-10T12:25:21;3.58;;;2.28;;
38693;SDS011;24447;43.460;25.744;2023-05-10T12:27:53;1.65;;;1.55;;
38693;SDS011;24447;43.460;25.744;2023-05-10T12:30:24;2.22;;;1.55;;
38693;SDS011;24447;43.460;25.744;2023-05-10T12:32:52;3.10;;;2.00;;
38693;SDS011;24447;43.460;25.744;2023-05-10T12:35:18;4.10;;;1.63;;
38693;SDS011;24447;43.460;25.744;2023-05-10T12:37:46;5.13;;;2.85;;
38693;SDS011;24447;43.460;25.744;2023-05-10T12:40:13;2.65;;;1.80;;
38693;SDS011;24447;43.460;25.744;2023-05-10T12:42:39;5.03;;;2.00;;
38693;SDS011;24447;43.460;25.744;2023-05-10T12:45:05;4.28;;;1.75;;
38693;SDS011;24447;43.460;25.744;2023-05-10T12:47:32;2.85;;;1.88;;
38693;SDS011;24447;43.460;25.744;2023-05-10T12:49:59;2.60;;;1.52;;
38693;SDS011;24447;43.460;25.744;2023-05-10T12:52:25;2.90;;;2.08;;
38693;SDS011;24447;43.460;25.744;2023-05-10T12:54:52;1.38;;;1.27;;
38693;SDS011;24447;43.460;25.744;2023-05-10T12:57:18;2.10;;;1.40;;
38693;SDS011;24447;43.460;25.744;2023-05-10T12:59:45;2.47;;;1.60;;
38693;SDS011;24447;43.460;25.744;2023-05-10T13:02:11;2.42;;;1.30;;
38693;SDS011;24447;43.460;25.744;2023-05-10T13:04:38;3.90;;;1.88;;
38693;SDS011;24447;43.460;25.744;2023-05-10T13:07:07;4.25;;;1.90;;
38693;SDS011;24447;43.460;25.744;2023-05-10T13:09:34;3.13;;;1.80;;
38693;SDS011;24447;43.460;25.744;2023-05-10T13:12:00;2.08;;;1.63;;
38693;SDS011;24447;43.460;25.744;2023-05-10T13:14:26;1.98;;;1.52;;
38693;SDS011;24447;43.460;25.744;2023-05-10T13:16:52;5.13;;;2.05;;
38693;SDS011;24447;43.460;25.744;2023-05-10T13:19:18;2.10;;;1.55;;
38693;SDS011;24447;43.460;25.744;2023-05-10T13:21:44;2.13;;;1.50;;
38693;SDS011;24447;43.460;25.744;2023-05-10T13:24:11;5.22;;;2.45;;
38693;SDS011;24447;43.460;25.744;2023-05-10T13:26:39;2.45;;;1.40;;
38693;SDS011;24447;43.460;25.744;2023-05-10T13:29:07;2.67;;;1.58;;
38693;SDS011;24447;43.460;25.744;2023-05-10T13:31:33;2.25;;;2.00;;
38693;SDS011;24447;43.460;25.744;2023-05-10T13:33:59;2.55;;;1.38;;
38693;SDS011;24447;43.460;25.744;2023-05-10T13:36:25;2.35;;;1.73;;
38693;SDS011;24447;43.460;25.744;2023-05-10T13:38:51;3.60;;;1.98;;
38693;SDS011;24447;43.460;25.744;2023-05-10T13:41:17;2.03;;;1.75;;
38693;SDS011;24447;43.460;25.744;2023-05-10T13:43:43;2.80;;;1.80;;
38693;SDS011;24447;43.460;25.744;2023-05-10T13:46:09;2.72;;;2.00;;
38693;SDS011;24447;43.460;25.744;2023-05-10T13:48:35;4.13;;;1.90;;
38693;SDS011;24447;43.460;25.744;2023-05-10T13:51:04;2.47;;;1.65;;
38693;SDS011;24447;43.460;25.744;2023-05-10T13:53:30;3.30;;;1.45;;
38693;SDS011;24447;43.460;25.744;2023-05-10T13:59:02;4.05;;;2.45;;
38693;SDS011;24447;43.460;25.744;2023-05-10T14:01:28;2.45;;;1.73;;
38693;SDS011;24447;43.460;25.744;2023-05-10T14:03:54;4.35;;;1.63;;
38693;SDS011;24447;43.460;25.744;2023-05-10T14:06:20;1.60;;;1.50;;
38693;SDS011;24447;43.460;25.744;2023-05-10T14:08:46;2.55;;;1.65;;
38693;SDS011;24447;43.460;25.744;2023-05-10T14:11:12;3.00;;;1.75;;
38693;SDS011;24447;43.460;25.744;2023-05-10T14:13:38;2.63;;;1.60;;
38693;SDS011;24447;43.460;25.744;2023-05-10T14:16:04;2.47;;;1.73;;
38693;SDS011;24447;43.460;25.744;2023-05-10T14:18:30;2.42;;;1.33;;
38693;SDS011;24447;43.460;25.744;2023-05-10T14:20:56;9.95;;;1.63;;
38693;SDS011;24447;43.460;25.744;2023-05-10T14:23:22;3.25;;;1.70;;
38693;SDS011;24447;43.460;25.744;2023-05-10T14:25:53;3.47;;;2.40;;
38693;SDS011;24447;43.460;25.744;2023-05-10T14:28:19;2.28;;;1.67;;
38693;SDS011;24447;43.460;25.744;2023-05-10T14:30:46;3.60;;;1.67;;
38693;SDS011;24447;43.460;25.744;2023-05-10T14:33:12;4.80;;;1.50;;
38693;SDS011;24447;43.460;25.744;2023-05-10T14:35:38;3.85;;;2.22;;
38693;SDS011;24447;43.460;25.744;2023-05-10T14:38:04;3.33;;;2.10;;
38693;SDS011;24447;43.460;25.744;2023-05-10T14:40:30;2.38;;;1.55;;
38693;SDS011;24447;43.460;25.744;2023-05-10T14:42:56;8.88;;;2.25;;
38693;SDS011;24447;43.460;25.744;2023-05-10T14:45:22;4.53;;;1.48;;
38693;SDS011;24447;43.460;25.744;2023-05-10T14:47:48;3.42;;;1.73;;
38693;SDS011;24447;43.460;25.744;2023-05-10T14:50:15;2.22;;;1.80;;
38693;SDS011;24447;43.460;25.744;2023-05-10T14:56:01;2.63;;;1.48;;
38693;SDS011;24447;43.460;25.744;2023-05-10T14:58:28;3.70;;;1.88;;
38693;SDS011;24447;43.460;25.744;2023-05-10T15:00:54;1.55;;;1.38;;
38693;SDS011;24447;43.460;25.744;2023-05-10T15:03:20;3.83;;;1.92;;
38693;SDS011;24447;43.460;25.744;2023-05-10T15:05:46;6.65;;;1.38;;
38693;SDS011;24447;43.460;25.744;2023-05-10T15:08:12;1.40;;;1.05;;
38693;SDS011;24447;43.460;25.744;2023-05-10T15:10:38;2.00;;;1.35;;
38693;SDS011;24447;43.460;25.744;2023-05-10T15:13:04;4.18;;;1.80;;
38693;SDS011;24447;43.460;25.744;2023-05-10T15:15:30;1.73;;;1.48;;
38693;SDS011;24447;43.460;25.744;2023-05-10T15:17:56;1.90;;;1.58;;
38693;SDS011;24447;43.460;25.744;2023-05-10T15:20:22;1.30;;;1.17;;
38693;SDS011;24447;43.460;25.744;2023-05-10T15:22:48;1.98;;;1.48;;
38693;SDS011;24447;43.460;25.744;2023-05-10T15:25:14;3.22;;;1.88;;
38693;SDS011;24447;43.460;25.744;2023-05-10T15:27:41;2.63;;;1.98;;
38693;SDS011;24447;43.460;25.744;2023-05-10T15:30:08;5.18;;;2.05;;